createdAt,value
2019-02-15T00:01:39.650Z,7.73
2019-02-15T00:04:12.306Z,8.20
2019-02-15T00:06:43.620Z,6.93
2019-02-15T00:09:14.810Z,8.30
2019-02-15T00:11:46.098Z,7.70
2019-02-15T00:14:17.326Z,8.00
2019-02-15T00:16:48.202Z,8.60
2019-02-15T00:19:35.015Z,7.77
2019-02-15T00:22:06.027Z,8.17
2019-02-15T00:24:38.701Z,7.53
2019-02-15T00:27:09.866Z,7.77
2019-02-15T00:29:40.498Z,7.20
2019-02-15T00:32:11.448Z,7.37
2019-02-15T00:34:42.433Z,7.50
2019-02-15T00:37:13.606Z,6.63
2019-02-15T00:39:44.574Z,7.47
2019-02-15T00:42:16.207Z,6.70
2019-02-15T00:44:47.185Z,7.80
2019-02-15T00:47:54.714Z,7.40
2019-02-15T00:50:48.751Z,7.43
2019-02-15T00:53:29.186Z,6.53
2019-02-15T00:56:19.610Z,6.87
2019-02-15T00:59:07.046Z,7.13
2019-02-15T01:02:06.484Z,7.30
2019-02-15T01:05:05.115Z,6.83
2019-02-15T01:07:47.576Z,7.03
2019-02-15T01:10:29.442Z,6.60
2019-02-15T01:13:09.761Z,6.40
2019-02-15T01:15:40.482Z,6.73
2019-02-15T01:18:12.130Z,7.13
2019-02-15T01:20:43.250Z,7.00
2019-02-15T01:23:13.969Z,7.20
2019-02-15T01:26:00.352Z,7.10
2019-02-15T01:28:44.022Z,6.67
2019-02-15T01:31:34.721Z,6.43
2019-02-15T01:34:21.602Z,6.23
2019-02-15T01:36:57.073Z,6.90
2019-02-15T01:39:46.104Z,6.87
2019-02-15T01:42:54.458Z,7.13
2019-02-15T01:45:47.602Z,7.20
2019-02-15T01:48:18.342Z,7.17
2019-02-15T01:50:49.247Z,7.10
2019-02-15T01:53:20.149Z,6.77
2019-02-15T01:55:51.326Z,6.70
2019-02-15T01:58:22.011Z,6.53
2019-02-15T02:00:52.911Z,6.80
2019-02-15T02:03:23.461Z,6.13
2019-02-15T02:05:55.368Z,6.80
2019-02-15T02:08:27.399Z,7.13
2019-02-15T02:11:01.950Z,7.17
2019-02-15T02:13:34.647Z,6.50
2019-02-15T02:16:05.490Z,6.07
2019-02-15T02:18:36.556Z,6.37
2019-02-15T02:21:09.283Z,5.87
2019-02-15T02:23:43.944Z,6.40
2019-02-15T02:26:17.407Z,6.20
2019-02-15T02:28:49.190Z,6.87
2019-02-15T02:31:20.366Z,6.83
2019-02-15T02:33:51.308Z,7.03
2019-02-15T02:36:24.264Z,6.97
2019-02-15T02:38:54.971Z,6.77
2019-02-15T02:41:26.921Z,6.70
2019-02-15T02:43:59.941Z,6.50
2019-02-15T02:46:31.195Z,6.90
2019-02-15T02:49:01.892Z,6.50
2019-02-15T02:51:33.693Z,5.87
2019-02-15T02:54:04.903Z,5.07
2019-02-15T02:56:36.001Z,6.97
2019-02-15T02:59:07.107Z,6.43
2019-02-15T03:01:37.732Z,6.70
2019-02-15T03:04:08.474Z,6.27
2019-02-15T03:06:39.128Z,6.07
2019-02-15T03:09:13.521Z,6.33
2019-02-15T03:11:44.119Z,5.90
2019-02-15T03:14:14.991Z,6.60
2019-02-15T03:16:45.877Z,5.77
2019-02-15T03:19:16.819Z,5.97
2019-02-15T03:21:47.649Z,6.47
2019-02-15T03:24:18.601Z,5.80
2019-02-15T03:26:49.306Z,7.43
2019-02-15T03:29:19.962Z,5.60
2019-02-15T03:31:50.617Z,6.20
2019-02-15T03:34:21.475Z,6.07
2019-02-15T03:37:15.858Z,6.13
2019-02-15T03:39:51.759Z,5.80
2019-02-15T03:42:22.449Z,6.73
2019-02-15T03:44:53.224Z,5.93
2019-02-15T03:47:26.669Z,5.90
2019-02-15T03:49:57.759Z,6.93
2019-02-15T03:52:50.116Z,6.07
2019-02-15T03:55:46.963Z,5.77
2019-02-15T03:58:18.781Z,7.10
2019-02-15T04:00:49.852Z,5.97
2019-02-15T04:03:20.434Z,6.63
2019-02-15T04:05:51.141Z,5.63
2019-02-15T04:08:22.353Z,6.07
2019-02-15T04:10:53.006Z,5.93
2019-02-15T04:13:23.510Z,5.53
2019-02-15T04:15:54.145Z,5.23
2019-02-15T04:18:24.841Z,6.10
2019-02-15T04:20:55.621Z,5.47
2019-02-15T04:23:27.214Z,6.10
2019-02-15T04:25:58.545Z,5.80
2019-02-15T04:28:29.168Z,6.00
2019-02-15T04:31:00.309Z,5.87
2019-02-15T04:33:31.277Z,5.50
2019-02-15T04:36:02.437Z,5.57
2019-02-15T04:38:33.600Z,5.57
2019-02-15T04:41:04.463Z,6.33
2019-02-15T04:43:35.866Z,5.67
2019-02-15T04:46:06.737Z,5.90
2019-02-15T04:48:37.649Z,6.13
2019-02-15T04:51:08.640Z,6.53
2019-02-15T04:53:39.518Z,5.90
2019-02-15T04:56:10.481Z,5.10
2019-02-15T04:58:43.644Z,4.97
2019-02-15T05:01:14.788Z,5.57
2019-02-15T05:03:45.586Z,5.07
2019-02-15T05:06:16.598Z,5.00
2019-02-15T05:08:52.305Z,5.73
2019-02-15T05:11:23.098Z,5.60
2019-02-15T05:13:54.102Z,5.47
2019-02-15T05:16:26.685Z,5.50
2019-02-15T05:18:58.679Z,5.77
2019-02-15T05:21:30.103Z,5.83
2019-02-15T05:24:01.427Z,5.53
2019-02-15T05:26:32.088Z,5.93
2019-02-15T05:29:02.646Z,5.40
2019-02-15T05:31:40.634Z,5.50
2019-02-15T05:34:11.627Z,5.93
2019-02-15T05:36:42.719Z,5.80
2019-02-15T05:39:13.487Z,6.30
2019-02-15T05:41:44.266Z,5.70
2019-02-15T05:44:16.349Z,5.50
2019-02-15T05:46:47.382Z,5.93
2019-02-15T05:49:17.902Z,5.10
2019-02-15T05:51:48.815Z,5.87
2019-02-15T05:54:29.652Z,5.43
2019-02-15T05:56:56.308Z,6.13
2019-02-15T05:59:27.105Z,6.97
2019-02-15T06:02:01.081Z,6.13
2019-02-15T06:04:31.596Z,6.43
2019-02-15T06:07:02.692Z,6.40
2019-02-15T06:09:34.105Z,6.17
2019-02-15T06:12:05.085Z,5.20
2019-02-15T06:14:35.942Z,6.40
2019-02-15T06:17:06.905Z,5.00
2019-02-15T06:19:37.445Z,5.23
2019-02-15T06:22:08.149Z,5.23
2019-02-15T06:24:38.785Z,5.73
2019-02-15T06:27:09.622Z,6.47
2019-02-15T06:29:40.387Z,5.80
2019-02-15T06:32:11.826Z,5.63
2019-02-15T06:34:46.821Z,5.93
2019-02-15T06:37:17.312Z,7.33
2019-02-15T06:39:48.190Z,5.60
2019-02-15T06:42:19.423Z,7.67
2019-02-15T06:44:50.833Z,5.83
2019-02-15T06:47:25.759Z,6.73
2019-02-15T06:49:56.903Z,5.73
2019-02-15T06:52:29.447Z,5.80
2019-02-15T06:55:00.683Z,5.37
2019-02-15T06:57:34.395Z,5.63
2019-02-15T07:00:25.848Z,6.03
2019-02-15T07:03:18.646Z,5.70
2019-02-15T07:05:50.730Z,5.40
2019-02-15T07:08:21.897Z,5.70
2019-02-15T07:10:52.855Z,4.83
2019-02-15T07:13:23.686Z,5.43
2019-02-15T07:15:54.805Z,4.97
2019-02-15T07:18:25.736Z,5.43
2019-02-15T07:20:56.688Z,6.00
2019-02-15T07:23:27.388Z,5.77
2019-02-15T07:25:58.639Z,6.13
2019-02-15T07:28:30.032Z,6.00
2019-02-15T07:31:02.729Z,5.17
2019-02-15T07:33:33.389Z,5.10
2019-02-15T07:36:03.937Z,5.00
2019-02-15T07:38:34.683Z,5.43
2019-02-15T07:41:07.250Z,5.27
2019-02-15T07:43:47.790Z,5.17
2019-02-15T07:46:16.624Z,5.63
2019-02-15T07:48:49.577Z,5.50
2019-02-15T07:51:22.709Z,5.60
2019-02-15T07:53:57.362Z,4.83
2019-02-15T07:56:30.994Z,4.10
2019-02-15T07:59:05.598Z,4.23
2019-02-15T08:01:39.096Z,4.43
2019-02-15T08:04:16.332Z,4.97
2019-02-15T08:06:58.477Z,4.90
2019-02-15T08:09:31.123Z,4.37
2019-02-15T08:12:04.316Z,4.93
2019-02-15T08:14:40.539Z,4.83
2019-02-15T08:17:12.716Z,5.03
2019-02-15T08:19:52.565Z,4.87
2019-02-15T08:22:24.357Z,4.30
2019-02-15T08:24:59.207Z,5.13
2019-02-15T08:27:31.582Z,4.77
2019-02-15T08:30:04.765Z,5.73
2019-02-15T08:32:37.748Z,4.87
2019-02-15T08:35:10.669Z,5.27
2019-02-15T08:37:48.299Z,4.30
2019-02-15T08:40:21.349Z,4.43
2019-02-15T08:42:56.536Z,4.47
2019-02-15T08:45:29.078Z,4.37
2019-02-15T08:48:03.095Z,4.77
2019-02-15T08:50:37.390Z,3.57
2019-02-15T08:53:08.166Z,4.70
2019-02-15T08:55:39.755Z,5.33
2019-02-15T08:58:13.943Z,4.80
2019-02-15T09:00:45.109Z,4.93
2019-02-15T09:03:15.920Z,5.00
2019-02-15T09:05:48.981Z,5.03
2019-02-15T09:08:19.863Z,4.93
2019-02-15T09:10:51.638Z,5.17
2019-02-15T09:13:23.139Z,4.97
2019-02-15T09:15:53.985Z,4.30
2019-02-15T09:18:25.213Z,5.37
2019-02-15T09:20:57.308Z,4.37
2019-02-15T09:23:28.044Z,4.80
2019-02-15T09:26:00.256Z,5.70
2019-02-15T09:28:47.488Z,4.40
2019-02-15T09:31:19.541Z,4.77
2019-02-15T09:33:50.215Z,4.60
2019-02-15T09:36:21.383Z,4.13
2019-02-15T09:38:53.081Z,4.70
2019-02-15T09:41:27.081Z,4.20
2019-02-15T09:44:01.804Z,4.40
2019-02-15T09:46:34.376Z,4.53
2019-02-15T09:49:06.106Z,3.63
2019-02-15T09:51:37.510Z,4.27
2019-02-15T09:54:08.246Z,3.93
2019-02-15T09:56:39.188Z,4.10
2019-02-15T09:59:09.960Z,4.10
2019-02-15T10:01:42.803Z,4.47
2019-02-15T10:04:13.748Z,4.07
2019-02-15T10:06:44.346Z,4.23
2019-02-15T10:09:15.115Z,4.47
2019-02-15T10:11:45.885Z,3.97
2019-02-15T10:14:17.486Z,4.37
2019-02-15T10:16:51.653Z,3.80
2019-02-15T10:19:23.129Z,4.50
2019-02-15T10:21:54.028Z,3.90
2019-02-15T10:24:25.006Z,4.40
2019-02-15T10:26:55.745Z,3.67
2019-02-15T10:29:26.747Z,3.70
2019-02-15T10:32:00.921Z,3.70
2019-02-15T10:34:51.836Z,3.50
2019-02-15T10:37:52.365Z,3.57
2019-02-15T10:40:30.569Z,3.80
2019-02-15T10:43:01.506Z,2.97
2019-02-15T10:45:38.836Z,3.80
2019-02-15T10:48:12.052Z,4.23
2019-02-15T10:50:45.132Z,2.90
2019-02-15T10:53:16.090Z,3.53
2019-02-15T10:55:50.261Z,3.87
2019-02-15T10:58:26.672Z,3.83
2019-02-15T11:00:57.928Z,3.00
2019-02-15T11:03:29.953Z,3.00
2019-02-15T11:06:07.535Z,3.00
2019-02-15T11:08:33.422Z,3.27
2019-02-15T11:11:04.354Z,3.53
2019-02-15T11:13:35.445Z,3.03
2019-02-15T11:16:14.284Z,2.20
2019-02-15T11:18:45.571Z,2.13
2019-02-15T11:21:19.316Z,2.10
2019-02-15T11:23:53.537Z,2.00
2019-02-15T11:26:33.615Z,2.33
2019-02-15T11:29:07.252Z,2.40
2019-02-15T11:31:38.077Z,2.10
2019-02-15T11:34:11.751Z,2.20
2019-02-15T11:36:42.457Z,2.07
2019-02-15T11:39:16.266Z,2.03
2019-02-15T11:41:50.170Z,1.73
2019-02-15T11:44:21.000Z,2.20
2019-02-15T11:46:56.682Z,1.63
2019-02-15T11:49:25.682Z,2.10
2019-02-15T11:51:59.228Z,1.70
2019-02-15T11:54:30.571Z,1.77
2019-02-15T11:57:01.104Z,1.40
2019-02-15T11:59:38.643Z,1.50
2019-02-15T12:02:09.251Z,1.60
2019-02-15T12:04:40.201Z,1.70
2019-02-15T12:07:16.634Z,1.80
2019-02-15T12:09:47.272Z,1.50
2019-02-15T12:12:20.903Z,1.50
2019-02-15T12:14:53.889Z,1.23
2019-02-15T12:17:31.305Z,1.20
2019-02-15T12:20:01.788Z,1.10
2019-02-15T12:22:40.276Z,1.23
2019-02-15T12:25:13.477Z,1.17
2019-02-15T12:27:46.789Z,2.13
2019-02-15T12:30:23.254Z,1.20
2019-02-15T12:32:59.794Z,1.30
2019-02-15T12:35:31.915Z,2.03
2019-02-15T12:38:03.237Z,1.10
2019-02-15T12:40:33.815Z,0.93
2019-02-15T12:43:04.792Z,1.60
2019-02-15T12:45:37.183Z,1.40
2019-02-15T12:48:07.881Z,1.07
2019-02-15T12:50:38.864Z,1.47
2019-02-15T12:53:09.622Z,1.20
2019-02-15T12:55:41.104Z,1.93
2019-02-15T12:58:12.318Z,1.40
2019-02-15T13:00:51.254Z,1.43
2019-02-15T13:03:25.351Z,2.50
2019-02-15T13:05:56.101Z,1.77
2019-02-15T13:08:28.168Z,1.10
2019-02-15T13:11:01.858Z,1.13
2019-02-15T13:13:33.081Z,1.23
2019-02-15T13:16:03.508Z,1.13
2019-02-15T13:18:33.954Z,0.90
2019-02-15T13:21:05.025Z,1.90
2019-02-15T13:23:36.604Z,1.00
2019-02-15T13:26:08.835Z,1.17
2019-02-15T13:28:39.523Z,1.30
2019-02-15T13:31:13.243Z,1.50
2019-02-15T13:33:51.724Z,1.10
2019-02-15T13:36:23.094Z,1.00
2019-02-15T13:38:56.336Z,1.07
2019-02-15T13:41:29.528Z,1.10
2019-02-15T13:44:07.658Z,1.13
2019-02-15T13:46:40.876Z,1.40
2019-02-15T13:49:13.066Z,1.43
2019-02-15T13:51:45.541Z,1.80
2019-02-15T13:54:21.081Z,0.97
2019-02-15T13:56:53.623Z,1.30
2019-02-15T13:59:24.382Z,0.80
2019-02-15T14:01:58.292Z,0.97
2019-02-15T14:04:34.860Z,1.10
2019-02-15T14:07:17.864Z,1.40
2019-02-15T14:09:52.537Z,1.10
2019-02-15T14:12:24.048Z,1.20
2019-02-15T14:15:05.154Z,1.10
2019-02-15T14:17:44.177Z,1.30
2019-02-15T14:20:12.592Z,1.33
2019-02-15T14:22:46.250Z,1.40
2019-02-15T14:25:17.900Z,1.30
2019-02-15T14:27:49.773Z,1.53
2019-02-15T14:30:22.626Z,2.60
2019-02-15T14:33:04.888Z,1.90
2019-02-15T14:35:38.788Z,1.17
2019-02-15T14:38:10.101Z,1.63
2019-02-15T14:40:41.138Z,2.53
2019-02-15T14:43:13.084Z,1.10
2019-02-15T14:45:44.116Z,1.53
2019-02-15T14:48:14.992Z,1.20
2019-02-15T14:50:45.836Z,1.20
2019-02-15T14:53:17.854Z,1.07
2019-02-15T14:55:48.770Z,1.10
2019-02-15T14:58:19.311Z,1.57
2019-02-15T15:00:50.308Z,1.70
2019-02-15T15:03:27.883Z,1.50
2019-02-15T15:05:59.454Z,2.23
2019-02-15T15:08:30.844Z,1.80
2019-02-15T15:11:09.857Z,1.50
2019-02-15T15:13:46.037Z,1.40
2019-02-15T15:16:20.098Z,1.30
2019-02-15T15:18:51.058Z,1.40
2019-02-15T15:21:23.174Z,1.80
2019-02-15T15:23:55.179Z,1.33
2019-02-15T15:26:26.117Z,1.87
2019-02-15T15:28:56.610Z,1.40
2019-02-15T15:31:27.747Z,1.73
2019-02-15T15:34:00.796Z,2.07
2019-02-15T15:36:31.644Z,1.80
2019-02-15T15:39:04.885Z,2.57
2019-02-15T15:42:00.961Z,2.30
2019-02-15T15:44:32.615Z,2.77
2019-02-15T15:47:08.187Z,2.00
2019-02-15T15:49:38.932Z,2.47
2019-02-15T15:52:09.486Z,3.47
2019-02-15T15:54:43.094Z,3.77
2019-02-15T15:57:17.100Z,2.27
2019-02-15T15:59:49.104Z,4.23
2019-02-15T16:02:23.123Z,3.20
2019-02-15T16:04:55.212Z,3.07
2019-02-15T16:07:28.769Z,3.10
2019-02-15T16:09:59.987Z,2.00
2019-02-15T16:12:31.094Z,2.70
2019-02-15T16:15:02.036Z,2.77
2019-02-15T16:17:35.732Z,2.77
2019-02-15T16:20:12.114Z,2.30
2019-02-15T16:23:02.748Z,2.47
2019-02-15T16:25:33.286Z,1.80
2019-02-15T16:28:10.017Z,2.63
2019-02-15T16:30:53.116Z,2.17
2019-02-15T16:33:25.817Z,2.53
2019-02-15T16:35:58.534Z,2.13
2019-02-15T16:38:33.411Z,1.80
2019-02-15T16:41:04.316Z,2.07
2019-02-15T16:43:35.349Z,2.87
2019-02-15T16:46:06.360Z,2.80
2019-02-15T16:48:42.091Z,2.33
2019-02-15T16:51:12.887Z,2.10
2019-02-15T16:53:45.825Z,2.43
2019-02-15T16:56:17.526Z,2.60
2019-02-15T16:58:51.563Z,2.87
2019-02-15T17:01:24.183Z,3.03
2019-02-15T17:03:58.299Z,2.27
2019-02-15T17:06:32.381Z,2.40
2019-02-15T17:09:05.089Z,3.93
2019-02-15T17:11:39.097Z,2.40
2019-02-15T17:14:11.097Z,2.60
2019-02-15T17:16:43.839Z,3.10
2019-02-15T17:19:14.611Z,3.73
2019-02-15T17:21:50.358Z,3.23
2019-02-15T17:24:25.109Z,2.93
2019-02-15T17:26:55.951Z,3.43
2019-02-15T17:29:33.970Z,2.90
2019-02-15T17:32:10.840Z,3.60
2019-02-15T17:34:43.376Z,3.80
2019-02-15T17:37:15.102Z,3.63
2019-02-15T17:39:45.993Z,4.53
2019-02-15T17:42:19.144Z,3.57
2019-02-15T17:44:50.052Z,3.97
2019-02-15T17:47:23.571Z,5.17
2019-02-15T17:49:56.778Z,5.07
2019-02-15T17:52:28.090Z,4.57
2019-02-15T17:54:59.391Z,3.93
2019-02-15T17:57:30.297Z,4.47
2019-02-15T18:00:01.304Z,4.93
2019-02-15T18:02:40.832Z,4.70
2019-02-15T18:05:17.263Z,3.53
2019-02-15T18:07:52.307Z,4.53
2019-02-15T18:10:25.985Z,5.00
2019-02-15T18:12:57.272Z,5.33
2019-02-15T18:15:31.286Z,4.67
2019-02-15T18:18:02.115Z,4.33
2019-02-15T18:20:33.591Z,5.10
2019-02-15T18:23:04.636Z,4.97
2019-02-15T18:25:44.184Z,6.83
2019-02-15T18:28:34.600Z,5.13
2019-02-15T18:31:05.731Z,5.33
2019-02-15T18:33:48.771Z,5.03
2019-02-15T18:36:22.369Z,5.53
2019-02-15T18:38:56.466Z,5.50
2019-02-15T18:41:28.876Z,5.90
2019-02-15T18:44:02.876Z,5.20
2019-02-15T18:46:54.181Z,5.40
2019-02-15T18:49:30.160Z,6.10
2019-02-15T18:52:01.028Z,5.30
2019-02-15T18:54:38.098Z,5.90
2019-02-15T18:57:14.355Z,5.50
2019-02-15T18:59:54.130Z,5.67
2019-02-15T19:02:26.899Z,4.93
2019-02-15T19:04:59.064Z,4.40
2019-02-15T19:07:30.605Z,4.93
2019-02-15T19:10:08.809Z,4.93
2019-02-15T19:12:41.818Z,6.53
2019-02-15T19:15:17.241Z,6.70
2019-02-15T19:17:49.296Z,6.37
2019-02-15T19:20:22.318Z,5.87
2019-02-15T19:22:53.452Z,4.60
2019-02-15T19:25:24.986Z,4.90
2019-02-15T19:27:55.866Z,6.57
2019-02-15T19:30:33.888Z,6.00
2019-02-15T19:33:12.859Z,5.30
2019-02-15T19:35:48.864Z,5.73
2019-02-15T19:38:25.358Z,5.57
2019-02-15T19:41:04.285Z,5.30
2019-02-15T19:43:46.022Z,5.43
2019-02-15T19:46:20.222Z,5.03
2019-02-15T19:48:50.933Z,6.33
2019-02-15T19:51:25.582Z,6.37
2019-02-15T19:54:03.504Z,6.27
2019-02-15T19:56:34.257Z,6.63
2019-02-15T19:59:05.404Z,6.17
2019-02-15T20:01:39.681Z,6.90
2019-02-15T20:04:13.552Z,6.83
2019-02-15T20:06:47.567Z,7.00
2019-02-15T20:09:24.561Z,6.20
2019-02-15T20:11:58.379Z,6.57
2019-02-15T20:14:31.214Z,7.43
2019-02-15T20:17:19.304Z,6.93
2019-02-15T20:19:52.288Z,6.77
2019-02-15T20:22:28.591Z,6.70
2019-02-15T20:25:11.206Z,7.10
2019-02-15T20:27:47.562Z,6.80
2019-02-15T20:30:21.131Z,7.03
2019-02-15T20:32:53.547Z,6.83
2019-02-15T20:35:26.428Z,7.37
2019-02-15T20:38:00.272Z,7.97
2019-02-15T20:40:34.284Z,7.67
2019-02-15T20:43:11.627Z,6.90
2019-02-15T20:45:50.220Z,7.37
2019-02-15T20:48:46.827Z,7.57
2019-02-15T20:51:19.558Z,6.53
2019-02-15T20:53:55.826Z,7.03
2019-02-15T20:56:29.829Z,7.13
2019-02-15T20:59:04.108Z,6.60
2019-02-15T21:01:37.122Z,7.07
2019-02-15T21:04:09.824Z,7.13
2019-02-15T21:06:44.091Z,6.67
2019-02-15T21:09:24.826Z,7.33
2019-02-15T21:12:03.204Z,7.17
2019-02-15T21:14:40.348Z,7.10
2019-02-15T21:17:14.186Z,7.27
2019-02-15T21:19:46.102Z,7.10
2019-02-15T21:22:36.300Z,7.13
2019-02-15T21:25:14.116Z,7.67
2019-02-15T21:27:46.476Z,7.17
2019-02-15T21:30:22.520Z,7.80
2019-02-15T21:32:54.043Z,7.23
2019-02-15T21:35:25.187Z,7.40
2019-02-15T21:37:57.322Z,8.43
2019-02-15T21:40:28.866Z,8.87
2019-02-15T21:43:00.733Z,7.87
2019-02-15T21:45:33.752Z,8.97
2019-02-15T21:48:04.535Z,7.80
2019-02-15T21:50:35.469Z,8.40
2019-02-15T21:53:06.270Z,8.93
2019-02-15T21:55:37.653Z,8.33
2019-02-15T21:58:08.314Z,7.83
2019-02-15T22:00:39.537Z,8.33
2019-02-15T22:03:16.790Z,8.10
2019-02-15T22:05:54.353Z,7.33
2019-02-15T22:08:25.007Z,8.50
2019-02-15T22:10:57.551Z,8.73
2019-02-15T22:13:34.940Z,8.30
2019-02-15T22:16:13.187Z,8.70
2019-02-15T22:18:44.087Z,9.07
2019-02-15T22:21:17.143Z,9.37
2019-02-15T22:23:49.541Z,8.10
2019-02-15T22:26:23.544Z,8.90
2019-02-15T22:28:56.385Z,7.97
2019-02-15T22:31:32.772Z,9.30
2019-02-15T22:34:08.706Z,8.40
2019-02-15T22:36:48.134Z,8.10
2019-02-15T22:39:21.190Z,9.23
2019-02-15T22:41:58.577Z,9.80
2019-02-15T22:44:29.265Z,9.13
2019-02-15T22:47:02.492Z,8.80
2019-02-15T22:49:43.361Z,7.80
2019-02-15T22:52:09.528Z,9.33
2019-02-15T22:54:41.690Z,8.13
2019-02-15T22:57:13.114Z,8.83
2019-02-15T22:59:47.581Z,8.47
2019-02-15T23:02:30.177Z,8.70
2019-02-15T23:05:07.242Z,9.20
2019-02-15T23:07:37.951Z,9.27
2019-02-15T23:10:09.269Z,8.27
2019-02-15T23:12:40.256Z,9.53
2019-02-15T23:15:16.764Z,8.87
2019-02-15T23:17:47.643Z,9.30
2019-02-15T23:20:18.399Z,10.80
2019-02-15T23:22:49.555Z,9.63
2019-02-15T23:25:25.181Z,8.93
2019-02-15T23:27:56.860Z,9.77
2019-02-15T23:30:28.002Z,8.80
2019-02-15T23:33:02.947Z,8.83
2019-02-15T23:35:33.657Z,8.60
2019-02-15T23:38:06.574Z,8.93
2019-02-15T23:40:37.540Z,9.07
2019-02-15T23:43:08.866Z,8.40
2019-02-15T23:45:39.909Z,8.83
2019-02-15T23:48:11.080Z,8.30
2019-02-15T23:50:41.924Z,8.30
2019-02-15T23:53:14.105Z,7.67
2019-02-15T23:55:45.190Z,7.93
2019-02-15T23:58:16.233Z,8.97
